Eldora, Pennsylvania
Current Conditions -  °F | °C
As of 11:15 PM on Tuesday 27 Jan 2015 (Local Time) from KMQS Reporting Station
Clear Clear  
Wind Chill:   Ceiling: Unl
Heat Index: 19°   Visibility: 10mi
Dew Point:   Wind: 17mph
Humidity: 63%   Direction: 330°NNW
Pressure: 29.89"   Gusts: 23mph
Location:  39.7675°N, 76.1818°W
Report Text: KMQS 280415Z AUTO 33015G20KT 10SM CLR M07/M13 A2989 RMK AO2
Loading
Personal Weather Stations






























Interactive Weather Map New forecast layout! Learn more

10-Day Weather Forecast

Advertisements
Track Severe Weather on mobile